createdAt,value
2022-10-11T00:00:38.466Z,100771.56
2022-10-11T00:06:00.346Z,100778.50
2022-10-11T00:11:22.242Z,100772.56
2022-10-11T00:16:44.441Z,100773.44
2022-10-11T00:22:06.533Z,100770.09
2022-10-11T00:27:28.426Z,100770.09
2022-10-11T00:32:50.309Z,100772.78
2022-10-11T00:38:12.174Z,100771.19
2022-10-11T00:43:34.676Z,100764.56
2022-10-11T00:49:02.874Z,100763.78
2022-10-11T00:54:28.816Z,100761.41
2022-10-11T00:59:53.833Z,100756.47
2022-10-11T01:05:29.064Z,100759.00
2022-10-11T01:10:52.032Z,100750.63
2022-10-11T01:16:23.542Z,100748.94
2022-10-11T01:21:52.086Z,100731.84
2022-10-11T01:27:29.413Z,100737.81
2022-10-11T01:33:17.138Z,100727.66
2022-10-11T01:38:50.598Z,100725.06
2022-10-11T01:44:13.567Z,100725.84
2022-10-11T01:49:35.404Z,100714.75
2022-10-11T01:55:31.058Z,100725.75
2022-10-11T02:01:03.381Z,100719.88
2022-10-11T02:06:46.962Z,100719.84
2022-10-11T02:12:12.468Z,100717.34
2022-10-11T02:17:39.296Z,100721.47
2022-10-11T02:23:07.980Z,100700.97
2022-10-11T02:28:35.444Z,100710.34
2022-10-11T02:34:05.347Z,100699.00
2022-10-11T02:39:34.125Z,100710.09
2022-10-11T02:45:04.293Z,100707.34
2022-10-11T02:50:27.035Z,100720.84
2022-10-11T02:55:51.447Z,100708.25
2022-10-11T03:01:13.911Z,100718.41
2022-10-11T03:06:35.874Z,100715.88
2022-10-11T03:11:57.763Z,100710.22
2022-10-11T03:17:35.679Z,100715.47
2022-10-11T03:22:58.228Z,100730.97
2022-10-11T03:28:20.620Z,100731.81
2022-10-11T03:33:42.485Z,100722.38
2022-10-11T03:39:04.507Z,100730.16
2022-10-11T03:44:26.615Z,100736.03
2022-10-11T03:49:48.490Z,100738.53
2022-10-11T03:55:10.310Z,100742.00
2022-10-11T04:00:33.326Z,100749.59
2022-10-11T04:05:55.301Z,100750.50
2022-10-11T04:11:17.164Z,100751.22
2022-10-11T04:16:38.956Z,100745.19
2022-10-11T04:22:00.816Z,100750.34
2022-10-11T04:27:22.700Z,100753.63
2022-10-11T04:32:44.695Z,100755.34
2022-10-11T04:38:06.548Z,100756.56
2022-10-11T04:43:28.598Z,100766.78
2022-10-11T04:48:51.052Z,100765.25
2022-10-11T04:54:12.893Z,100786.66
2022-10-11T04:59:34.721Z,100782.44
2022-10-11T05:04:56.538Z,100789.28
2022-10-11T05:10:18.481Z,100791.00
2022-10-11T05:15:40.359Z,100793.50
2022-10-11T05:21:03.400Z,100799.41
2022-10-11T05:26:27.136Z,100803.69
2022-10-11T05:31:48.953Z,100810.25
2022-10-11T05:37:10.820Z,100806.56
2022-10-11T05:42:33.145Z,100798.38
2022-10-11T05:47:54.966Z,100816.53
2022-10-11T05:53:16.901Z,100823.06
2022-10-11T05:58:39.623Z,100818.31
2022-10-11T06:04:01.457Z,100830.25
2022-10-11T06:09:23.294Z,100805.81
2022-10-11T06:14:45.121Z,100826.66
2022-10-11T06:20:07.559Z,100843.34
2022-10-11T06:25:44.465Z,100840.97
2022-10-11T06:31:07.153Z,100860.38
2022-10-11T06:36:28.982Z,100862.03
2022-10-11T06:41:50.829Z,100876.56
2022-10-11T06:47:12.669Z,100887.38
2022-10-11T06:52:34.492Z,100890.78
2022-10-11T06:57:57.125Z,100897.41
2022-10-11T07:03:19.006Z,100902.38
2022-10-11T07:08:41.174Z,100923.50
2022-10-11T07:14:05.854Z,100918.50
2022-10-11T07:19:27.732Z,100922.59
2022-10-11T07:24:49.590Z,100925.75
2022-10-11T07:30:11.776Z,100944.31
2022-10-11T07:35:37.493Z,100969.25
2022-10-11T07:40:59.582Z,100973.28
2022-10-11T07:46:21.419Z,100966.72
2022-10-11T07:51:43.714Z,100981.63
2022-10-11T07:57:05.533Z,100992.72
2022-10-11T08:02:27.411Z,100991.56
2022-10-11T08:07:49.336Z,101004.75
2022-10-11T08:13:11.396Z,101007.91
2022-10-11T08:18:33.617Z,101013.13
2022-10-11T08:23:55.509Z,101013.53
2022-10-11T08:29:17.755Z,101025.16
2022-10-11T08:34:39.593Z,101027.03
2022-10-11T08:40:01.522Z,101023.69
2022-10-11T08:45:42.684Z,101019.91
2022-10-11T08:51:19.483Z,101029.13
2022-10-11T08:56:41.744Z,101033.28
2022-10-11T09:02:19.843Z,101016.84
2022-10-11T09:07:56.620Z,101038.38
2022-10-11T09:13:39.897Z,101038.13
2022-10-11T09:19:37.181Z,101044.41
2022-10-11T09:25:04.869Z,101046.66
2022-10-11T09:30:26.812Z,101057.91
2022-10-11T09:35:52.496Z,101062.53
2022-10-11T09:41:22.114Z,101065.88
2022-10-11T09:46:45.532Z,101059.22
2022-10-11T09:52:15.493Z,101060.84
2022-10-11T09:57:39.780Z,101075.88
2022-10-11T10:03:04.024Z,101081.84
2022-10-11T10:08:26.035Z,101081.66
2022-10-11T10:13:54.603Z,101078.88
2022-10-11T10:19:21.283Z,101082.03
2022-10-11T10:24:43.367Z,101082.97
2022-10-11T10:30:08.221Z,101078.47
2022-10-11T10:35:35.528Z,101090.91
2022-10-11T10:41:01.451Z,101079.72
2022-10-11T10:46:28.877Z,101102.38
2022-10-11T10:51:57.970Z,101092.75
2022-10-11T10:57:28.514Z,101103.91
2022-10-11T11:02:53.377Z,101111.34
2022-10-11T11:08:36.760Z,101107.16
2022-10-11T11:14:03.015Z,101113.31
2022-10-11T11:19:38.181Z,101116.41
2022-10-11T11:25:08.887Z,101127.38
2022-10-11T11:30:54.252Z,101112.59
2022-10-11T11:37:03.594Z,101122.25
2022-10-11T11:42:39.237Z,101124.28
2022-10-11T11:48:10.617Z,101128.22
2022-10-11T11:53:47.869Z,101132.13
2022-10-11T11:59:45.990Z,101138.72
2022-10-11T12:05:10.810Z,101148.34
2022-10-11T12:10:54.502Z,101156.63
2022-10-11T12:16:17.383Z,101154.59
2022-10-11T12:21:43.392Z,101145.22
2022-10-11T12:27:37.013Z,101157.28
2022-10-11T12:33:18.855Z,101150.25
2022-10-11T12:38:40.710Z,101141.56
2022-10-11T12:44:24.948Z,101153.94
2022-10-11T12:49:47.002Z,101164.47
2022-10-11T12:55:44.856Z,101162.06
2022-10-11T13:01:09.410Z,101158.78
2022-10-11T13:06:35.759Z,101164.03
2022-10-11T13:12:09.055Z,101171.78
2022-10-11T13:17:38.480Z,101172.19
2022-10-11T13:23:00.783Z,101174.72
2022-10-11T13:28:23.699Z,101169.34
2022-10-11T13:33:46.391Z,101171.53
2022-10-11T13:39:28.377Z,101166.84
2022-10-11T13:44:52.824Z,101177.03
2022-10-11T13:50:17.430Z,101172.78
2022-10-11T13:55:42.072Z,101183.00
2022-10-11T14:01:07.983Z,101188.59
2022-10-11T14:06:52.349Z,101192.75
2022-10-11T14:12:31.298Z,101198.88
2022-10-11T14:17:53.291Z,101191.34
2022-10-11T14:23:15.277Z,101192.75
2022-10-11T14:28:37.179Z,101204.56
2022-10-11T14:33:59.245Z,101199.53
2022-10-11T14:39:24.261Z,101194.88
2022-10-11T14:44:46.334Z,101201.75
2022-10-11T14:50:23.387Z,101210.56
2022-10-11T14:55:45.492Z,101214.22
2022-10-11T15:01:10.085Z,101220.06
2022-10-11T15:06:36.555Z,101216.16
2022-10-11T15:11:58.589Z,101225.88
2022-10-11T15:17:20.441Z,101230.09
2022-10-11T15:22:42.281Z,101237.78
2022-10-11T15:28:05.401Z,101230.03
2022-10-11T15:33:27.303Z,101251.03
2022-10-11T15:38:49.483Z,101256.03
2022-10-11T15:44:11.291Z,101251.69
2022-10-11T15:49:33.122Z,101262.53
2022-10-11T15:54:54.934Z,101283.91
2022-10-11T16:00:21.954Z,101267.59
2022-10-11T16:05:44.276Z,101293.69
2022-10-11T16:11:07.648Z,101294.94
2022-10-11T16:16:29.474Z,101293.75
2022-10-11T16:21:51.273Z,101311.16
2022-10-11T16:27:16.550Z,101311.44
2022-10-11T16:32:41.431Z,101308.34
2022-10-11T16:38:03.292Z,101319.00
2022-10-11T16:43:25.122Z,101312.28
2022-10-11T16:48:47.732Z,101312.56
2022-10-11T16:54:09.609Z,101321.31
2022-10-11T16:59:31.428Z,101327.53
2022-10-11T17:04:53.557Z,101328.56
2022-10-11T17:10:15.444Z,101325.34
2022-10-11T17:15:37.706Z,101334.00
2022-10-11T17:21:04.674Z,101328.22
2022-10-11T17:26:27.218Z,101337.72
2022-10-11T17:31:49.578Z,101339.59
2022-10-11T17:37:11.486Z,101343.09
2022-10-11T17:42:33.341Z,101338.19
2022-10-11T17:47:55.189Z,101345.84
2022-10-11T17:53:17.066Z,101363.16
2022-10-11T17:58:39.274Z,101349.59
2022-10-11T18:04:04.192Z,101355.63
2022-10-11T18:09:26.004Z,101353.13
2022-10-11T18:14:47.871Z,101364.34
2022-10-11T18:20:10.162Z,101361.84
2022-10-11T18:25:33.554Z,101364.47
2022-10-11T18:30:55.357Z,101357.00
2022-10-11T18:36:19.776Z,101367.41
2022-10-11T18:41:42.507Z,101378.59
2022-10-11T18:47:04.610Z,101382.03
2022-10-11T18:52:26.418Z,101362.56
2022-10-11T18:57:48.226Z,101381.47
2022-10-11T19:03:10.047Z,101383.25
2022-10-11T19:08:32.519Z,101385.09
2022-10-11T19:14:08.448Z,101384.34
2022-10-11T19:19:31.096Z,101386.16
2022-10-11T19:24:53.013Z,101405.97
2022-10-11T19:30:15.030Z,101397.47
2022-10-11T19:35:36.878Z,101403.50
2022-10-11T19:41:00.665Z,101406.09
2022-10-11T19:46:44.311Z,101405.31
2022-10-11T19:52:04.457Z,101409.63
2022-10-11T19:57:26.319Z,101405.38
2022-10-11T20:02:49.097Z,101417.44
2022-10-11T20:08:10.929Z,101423.47
2022-10-11T20:13:35.056Z,101419.25
2022-10-11T20:18:58.155Z,101415.06
2022-10-11T20:24:19.972Z,101426.28
2022-10-11T20:29:41.763Z,101411.78
2022-10-11T20:35:03.873Z,101428.09
2022-10-11T20:40:25.740Z,101433.28
2022-10-11T20:46:05.032Z,101415.34
2022-10-11T20:51:26.895Z,101428.19
2022-10-11T20:56:48.947Z,101421.41
2022-10-11T21:02:12.610Z,101433.47
2022-10-11T21:07:37.233Z,101441.28
2022-10-11T21:12:59.112Z,101426.72
2022-10-11T21:18:21.340Z,101436.16
2022-10-11T21:23:43.375Z,101434.47
2022-10-11T21:29:05.229Z,101434.50
2022-10-11T21:34:27.451Z,101440.53
2022-10-11T21:39:49.279Z,101435.44
2022-10-11T21:45:11.082Z,101433.75
2022-10-11T21:50:32.955Z,101456.91
2022-10-11T21:55:58.934Z,101452.63
2022-10-11T22:01:21.277Z,101441.56
2022-10-11T22:06:43.154Z,101459.56
2022-10-11T22:12:05.418Z,101448.41
2022-10-11T22:17:27.258Z,101456.16
2022-10-11T22:22:49.050Z,101446.84
2022-10-11T22:28:10.960Z,101444.25
2022-10-11T22:33:33.252Z,101461.41
2022-10-11T22:38:55.181Z,101460.56
2022-10-11T22:44:17.032Z,101475.16
2022-10-11T22:49:38.876Z,101475.13
2022-10-11T22:55:00.883Z,101478.59
2022-10-11T23:00:22.734Z,101479.47
2022-10-11T23:05:54.187Z,101468.34
2022-10-11T23:11:15.975Z,101481.19
2022-10-11T23:16:38.008Z,101475.19
2022-10-11T23:21:59.804Z,101478.59
2022-10-11T23:27:21.772Z,101475.19
2022-10-11T23:32:43.600Z,101482.06
2022-10-11T23:38:05.424Z,101482.91
2022-10-11T23:43:27.298Z,101488.06
2022-10-11T23:48:49.189Z,101490.63
2022-10-11T23:54:11.109Z,101488.06
2022-10-11T23:59:32.947Z,101493.19
